createdAt,value
2023-05-19T00:07:08.159Z,1010.92
2023-05-19T00:17:14.991Z,1010.89
2023-05-19T00:27:21.229Z,1010.82
2023-05-19T00:37:27.221Z,1010.80
2023-05-19T00:47:33.413Z,1010.73
2023-05-19T00:57:40.232Z,1010.69
2023-05-19T01:07:46.484Z,1010.65
2023-05-19T01:17:52.777Z,1010.64
2023-05-19T01:27:59.190Z,1010.64
2023-05-19T01:38:05.068Z,1010.61
2023-05-19T01:48:11.794Z,1010.64
2023-05-19T01:58:18.128Z,1010.61
2023-05-19T02:08:24.180Z,1010.59
2023-05-19T02:18:30.599Z,1010.60
2023-05-19T02:28:36.930Z,1010.59
2023-05-19T02:38:43.620Z,1010.58
2023-05-19T02:48:49.581Z,1010.48
2023-05-19T02:58:55.878Z,1010.35
2023-05-19T03:09:02.073Z,1010.44
2023-05-19T03:19:08.545Z,1010.38
2023-05-19T03:29:14.889Z,1010.39
2023-05-19T03:39:21.052Z,1010.47
2023-05-19T03:49:27.643Z,1010.47
2023-05-19T03:59:34.030Z,1010.59
2023-05-19T04:09:40.156Z,1010.59
2023-05-19T04:19:46.317Z,1010.65
2023-05-19T04:29:52.519Z,1010.67
2023-05-19T04:39:59.009Z,1010.70
2023-05-19T04:50:05.151Z,1010.72
2023-05-19T05:00:10.223Z,1010.77
2023-05-19T05:10:16.220Z,1010.73
2023-05-19T05:20:22.019Z,1010.72
2023-05-19T05:30:28.011Z,1010.70
2023-05-19T05:40:34.072Z,1010.75
2023-05-19T05:50:39.831Z,1010.72
2023-05-19T06:00:45.597Z,1010.64
2023-05-19T06:10:50.861Z,1010.68
2023-05-19T06:20:53.487Z,1010.68
2023-05-19T06:30:59.643Z,1010.69
2023-05-19T06:41:05.410Z,1010.61
2023-05-19T06:51:11.951Z,1010.50
2023-05-19T07:01:18.595Z,1010.51
2023-05-19T07:11:24.698Z,1010.43
2023-05-19T07:21:30.316Z,1010.40
2023-05-19T07:31:36.045Z,1010.38
2023-05-19T07:41:42.072Z,1010.27
2023-05-19T07:51:48.087Z,1010.14
2023-05-19T08:01:53.290Z,1009.98
2023-05-19T08:11:58.570Z,1010.03
2023-05-19T08:22:04.265Z,1009.99
2023-05-19T08:32:11.633Z,1009.90
2023-05-19T08:42:19.064Z,1009.87
2023-05-19T08:52:25.183Z,1009.76
2023-05-19T09:02:30.877Z,1009.59
2023-05-19T09:12:36.765Z,1009.50
2023-05-19T09:22:42.560Z,1009.35
2023-05-19T09:32:48.723Z,1009.37
2023-05-19T09:42:54.332Z,1009.36
2023-05-19T09:53:00.004Z,1009.26
2023-05-19T10:03:05.478Z,1009.24
2023-05-19T10:13:11.152Z,1009.01
2023-05-19T10:23:17.151Z,1009.04
2023-05-19T10:33:23.276Z,1008.94
2023-05-19T10:43:29.076Z,1008.96
2023-05-19T10:53:35.131Z,1008.89
2023-05-19T11:03:43.036Z,1008.80
2023-05-19T11:13:49.207Z,1008.76
2023-05-19T11:23:54.436Z,1008.62
2023-05-19T11:34:00.684Z,1008.56
2023-05-19T11:44:06.247Z,1008.44
2023-05-19T11:54:12.032Z,1008.46
2023-05-19T12:04:17.923Z,1008.56
2023-05-19T12:14:23.674Z,1008.42
2023-05-19T12:24:29.250Z,1008.37
2023-05-19T12:34:35.239Z,1008.38
2023-05-19T12:44:40.828Z,1008.32
2023-05-19T12:54:46.692Z,1008.12
2023-05-19T13:04:52.535Z,1008.04
2023-05-19T13:14:58.181Z,1008.06
2023-05-19T13:25:04.027Z,1008.10
2023-05-19T13:35:09.750Z,1007.95
2023-05-19T13:45:15.465Z,1007.71
2023-05-19T13:55:20.979Z,1007.89
2023-05-19T14:05:26.610Z,1007.90
2023-05-19T14:15:32.466Z,1007.84
2023-05-19T14:25:38.381Z,1007.81
2023-05-19T14:35:44.293Z,1007.79
2023-05-19T14:45:49.940Z,1007.85
2023-05-19T14:55:55.605Z,1007.83
2023-05-19T15:06:01.123Z,1007.63
2023-05-19T15:16:17.068Z,1007.65
2023-05-19T15:26:16.906Z,1007.77
2023-05-19T15:36:22.589Z,1007.73
2023-05-19T15:46:28.357Z,1007.66
2023-05-19T15:56:34.050Z,1007.66
2023-05-19T16:06:39.634Z,1007.61
2023-05-19T16:16:45.164Z,1007.64
2023-05-19T16:26:51.139Z,1007.61
2023-05-19T16:36:57.482Z,1007.70
2023-05-19T16:47:03.268Z,1007.79
2023-05-19T16:57:09.064Z,1007.79
2023-05-19T17:07:14.879Z,1007.73
2023-05-19T17:17:20.032Z,1007.67
2023-05-19T17:27:25.907Z,1007.72
2023-05-19T17:37:31.976Z,1007.74
2023-05-19T17:47:37.693Z,1007.78
2023-05-19T17:57:43.293Z,1007.78
2023-05-19T18:07:49.104Z,1007.68
2023-05-19T18:17:54.854Z,1007.70
2023-05-19T18:28:00.746Z,1007.71
2023-05-19T18:38:06.234Z,1007.67
2023-05-19T18:48:12.172Z,1007.66
2023-05-19T18:58:17.810Z,1007.72
2023-05-19T19:08:23.257Z,1007.72
2023-05-19T19:18:28.760Z,1007.88
2023-05-19T19:28:34.578Z,1008.09
2023-05-19T19:38:40.369Z,1008.16
2023-05-19T19:48:45.603Z,1008.22
2023-05-19T19:58:51.073Z,1008.23
2023-05-19T20:08:56.354Z,1008.15
2023-05-19T20:19:02.188Z,1008.20
2023-05-19T20:29:07.939Z,1008.34
2023-05-19T20:39:13.916Z,1008.28
2023-05-19T20:49:19.720Z,1008.23
2023-05-19T20:59:25.134Z,1008.28
2023-05-19T21:09:30.899Z,1008.32
2023-05-19T21:19:36.627Z,1008.27
2023-05-19T21:29:42.751Z,1008.26
2023-05-19T21:39:48.140Z,1008.22
2023-05-19T21:49:53.472Z,1008.16
2023-05-19T21:59:58.740Z,1008.23
2023-05-19T22:10:04.568Z,1008.19
2023-05-19T22:20:09.814Z,1008.18
2023-05-19T22:30:15.553Z,1008.25
2023-05-19T22:40:21.063Z,1008.32
2023-05-19T22:50:27.037Z,1008.13
2023-05-19T23:00:32.954Z,1008.24
2023-05-19T23:10:38.542Z,1008.27
2023-05-19T23:20:44.129Z,1008.21
2023-05-19T23:30:50.029Z,1008.28
2023-05-19T23:40:55.802Z,1008.26
2023-05-19T23:51:01.418Z,1008.17
